createdAt,value
2018-07-19T00:00:02.286Z,17.3
2018-07-19T00:15:02.603Z,17.2
2018-07-19T00:30:03.003Z,17.2
2018-07-19T00:45:02.363Z,17.1
2018-07-19T01:00:02.705Z,17.1
2018-07-19T01:15:03.076Z,17
2018-07-19T01:30:02.504Z,16.9
2018-07-19T01:45:02.853Z,16.9
2018-07-19T02:00:02.856Z,16.8
2018-07-19T02:15:02.883Z,16.8
2018-07-19T02:30:02.276Z,16.7
2018-07-19T02:45:02.566Z,16.6
2018-07-19T03:00:02.606Z,16.6
2018-07-19T03:15:02.946Z,16.5
2018-07-19T03:30:02.786Z,16.4
2018-07-19T03:45:03.114Z,16.4
2018-07-19T04:00:02.476Z,16.3
2018-07-19T04:15:02.820Z,16.2
2018-07-19T04:30:03.259Z,16.2
2018-07-19T04:45:02.573Z,16.2
2018-07-19T05:00:02.884Z,16.1
2018-07-19T05:15:02.858Z,16.1
2018-07-19T05:30:02.293Z,16.1
2018-07-19T05:45:02.592Z,16.1
2018-07-19T06:00:02.949Z,16.1
2018-07-19T06:15:02.923Z,16.1
2018-07-19T06:30:02.452Z,16
2018-07-19T06:45:02.795Z,16.1
2018-07-19T07:00:03.184Z,16.1
2018-07-19T07:15:03.051Z,16.1
2018-07-19T07:30:02.575Z,16.1
2018-07-19T07:45:02.880Z,16.1
2018-07-19T08:00:03.296Z,16.1
2018-07-19T08:15:02.659Z,16.2
2018-07-19T08:30:02.598Z,16.2
2018-07-19T08:45:02.955Z,16.2
2018-07-19T09:00:02.257Z,16.2
2018-07-19T09:15:03.242Z,16.3
2018-07-19T09:30:02.697Z,16.4
2018-07-19T09:45:02.482Z,16.4
2018-07-19T10:00:02.850Z,16.5
2018-07-19T10:15:03.240Z,16.6
2018-07-19T10:30:02.304Z,16.6
2018-07-19T10:45:03.199Z,16.7
2018-07-19T11:00:03.247Z,16.8
2018-07-19T11:15:02.589Z,16.9
2018-07-19T11:30:02.989Z,16.9
2018-07-19T11:45:02.293Z,17
2018-07-19T12:00:02.604Z,17.1
2018-07-19T12:15:02.946Z,17.2
2018-07-19T12:30:02.356Z,17.2
2018-07-19T12:45:02.661Z,17.3
2018-07-19T13:00:03.024Z,17.4
2018-07-19T13:15:02.374Z,17.5
2018-07-19T13:30:02.776Z,17.6
2018-07-19T13:45:03.082Z,17.6
2018-07-19T14:00:02.464Z,17.7
2018-07-19T14:15:02.776Z,17.8
2018-07-19T14:30:03.219Z,17.8
2018-07-19T14:45:02.566Z,17.8
2018-07-19T15:00:02.872Z,17.9
2018-07-19T15:15:03.232Z,17.9
2018-07-19T15:30:02.691Z,17.9
2018-07-19T15:45:03.021Z,17.9
2018-07-19T16:00:02.422Z,18
2018-07-19T16:15:02.747Z,18.1
2018-07-19T16:30:03.165Z,18.1
2018-07-19T16:45:02.475Z,18.1
2018-07-19T17:00:02.776Z,18.1
2018-07-19T17:15:03.119Z,18.1
2018-07-19T17:30:02.510Z,18.1
2018-07-19T17:45:02.841Z,18.1
2018-07-19T18:00:03.200Z,18.1
2018-07-19T18:15:02.477Z,18.1
2018-07-19T18:30:02.878Z,18
2018-07-19T18:45:03.246Z,18
2018-07-19T19:00:02.585Z,18
2018-07-19T19:15:02.874Z,17.9
2018-07-19T19:30:02.259Z,17.9
2018-07-19T19:45:02.659Z,17.9
2018-07-19T20:00:02.998Z,17.9
2018-07-19T20:15:02.340Z,17.8
2018-07-19T20:30:02.753Z,17.8
2018-07-19T20:45:03.075Z,17.8
2018-07-19T21:00:02.368Z,17.8
2018-07-19T21:15:02.668Z,17.7
2018-07-19T21:30:03.080Z,17.6
2018-07-19T21:45:02.402Z,17.6
2018-07-19T22:00:02.692Z,17.6
2018-07-19T22:15:02.978Z,17.5
2018-07-19T22:30:02.368Z,17.4
2018-07-19T22:45:02.681Z,17.4
2018-07-19T23:00:03.027Z,17.4
2018-07-19T23:15:02.378Z,17.3
2018-07-19T23:30:02.766Z,17.2
2018-07-19T23:45:03.079Z,17.1
